Time;durP1;ratioP1;P1;durP2;ratioP2;P2;SDS_P1;SDS_P2;PMS_P1;PMS_P2;Temp;Humidity;BMP_temperature;BMP_pressure;BME280_temperature;BME280_humidity;BME280_pressure;Samples;Min_cycle;Max_cycle;Signal;HPM_P1;HPM_P2
2023/12/11 00:02:20;;;;;;;4.10;2.67;;;21.00;56.90;;;;;;4990378;28;20280;-66
2023/12/11 00:04:45;;;;;;;3.17;2.73;;;21.00;56.90;;;;;;4992058;28;20539;-66
2023/12/11 00:07:11;;;;;;;4.40;2.50;;;20.90;56.90;;;;;;4992708;28;20276;-66
2023/12/11 00:09:36;;;;;;;3.40;2.03;;;21.00;56.90;;;;;;4976595;28;20208;-66
2023/12/11 00:12:02;;;;;;;3.70;2.40;;;20.90;56.90;;;;;;4994097;28;20173;-67
2023/12/11 00:14:28;;;;;;;3.30;2.30;;;21.00;56.90;;;;;;4994100;28;21008;-67
2023/12/11 00:16:54;;;;;;;3.10;1.93;;;20.90;56.90;;;;;;4960346;28;20205;-67
2023/12/11 00:19:19;;;;;;;3.17;2.07;;;21.00;57.00;;;;;;4992946;28;20183;-66
2023/12/11 00:21:45;;;;;;;3.80;2.60;;;21.00;57.00;;;;;;4976503;28;20197;-66
2023/12/11 00:24:11;;;;;;;3.70;2.33;;;20.90;56.90;;;;;;4976480;28;20183;-67
2023/12/11 00:26:36;;;;;;;3.20;1.97;;;20.90;56.90;;;;;;4993900;28;20653;-66
2023/12/11 00:29:02;;;;;;;3.87;2.20;;;21.00;57.00;;;;;;4992518;28;20165;-66
2023/12/11 00:31:28;;;;;;;3.17;2.40;;;21.00;57.00;;;;;;4976305;28;20227;-66
2023/12/11 00:33:53;;;;;;;3.80;2.20;;;21.00;57.00;;;;;;4992393;28;20416;-66
2023/12/11 00:36:19;;;;;;;2.67;1.87;;;20.90;56.90;;;;;;4993881;28;20193;-66
2023/12/11 00:38:45;;;;;;;2.87;2.13;;;20.90;56.90;;;;;;4992295;28;20177;-66
2023/12/11 00:41:10;;;;;;;3.67;1.90;;;20.90;56.90;;;;;;4998506;28;20173;-66
2023/12/11 00:43:36;;;;;;;3.07;2.27;;;21.00;57.10;;;;;;4995840;28;20196;-66
2023/12/11 00:46:02;;;;;;;5.33;2.57;;;21.00;57.00;;;;;;5011754;28;20233;-66
2023/12/11 00:48:27;;;;;;;3.23;2.30;;;20.90;56.90;;;;;;5013009;28;20164;-65
2023/12/11 00:50:53;;;;;;;2.83;2.07;;;20.90;56.90;;;;;;5011639;28;20265;-66
2023/12/11 00:53:19;;;;;;;3.03;2.00;;;20.90;56.90;;;;;;5012986;28;20326;-66
2023/12/11 00:55:44;;;;;;;4.00;2.63;;;20.90;56.90;;;;;;5011646;28;20193;-65
2023/12/11 00:58:10;;;;;;;3.30;2.17;;;20.90;56.90;;;;;;5013208;28;20173;-66
2023/12/11 01:00:36;;;;;;;3.23;2.53;;;20.90;57.00;;;;;;4995560;28;20168;-66
2023/12/11 01:03:02;;;;;;;3.43;2.40;;;20.90;57.00;;;;;;5011395;28;20207;-66
2023/12/11 01:05:28;;;;;;;2.70;2.40;;;20.90;57.00;;;;;;5011535;28;20202;-66
2023/12/11 01:07:54;;;;;;;10.33;2.73;;;20.90;57.00;;;;;;5013038;28;20498;-66
2023/12/11 01:10:19;;;;;;;3.30;2.20;;;20.90;57.00;;;;;;5011280;28;20176;-66
2023/12/11 01:12:45;;;;;;;2.70;2.00;;;20.90;57.00;;;;;;5012645;28;20179;-66
2023/12/11 01:15:11;;;;;;;2.20;1.93;;;20.90;57.00;;;;;;5012515;28;20168;-66
2023/12/11 01:17:36;;;;;;;3.00;2.40;;;20.90;57.00;;;;;;5011171;28;20176;-67
2023/12/11 01:20:02;;;;;;;3.37;2.27;;;20.90;57.00;;;;;;5012499;28;20172;-66
2023/12/11 01:22:28;;;;;;;2.80;2.30;;;20.90;57.00;;;;;;5012606;28;20207;-66
2023/12/11 01:24:54;;;;;;;2.87;2.20;;;20.90;57.00;;;;;;5010998;28;20434;-66
2023/12/11 01:27:19;;;;;;;4.57;3.07;;;20.90;57.00;;;;;;5011017;28;20611;-66
2023/12/11 01:29:45;;;;;;;2.40;2.10;;;20.90;57.00;;;;;;4994666;28;20172;-66
2023/12/11 01:32:11;;;;;;;2.77;1.87;;;20.90;57.00;;;;;;5010923;28;20238;-66
2023/12/11 01:34:38;;;;;;;4.90;3.03;;;20.90;57.00;;;;;;5011191;28;20204;-66
2023/12/11 01:37:03;;;;;;;2.97;2.27;;;20.90;57.00;;;;;;4994544;28;20799;-66
2023/12/11 01:39:29;;;;;;;3.40;2.13;;;20.90;57.00;;;;;;5010707;28;20198;-66
2023/12/11 01:41:55;;;;;;;4.20;2.27;;;20.90;57.00;;;;;;5011981;28;20227;-66
2023/12/11 01:44:20;;;;;;;3.57;1.73;;;20.90;57.00;;;;;;4994411;28;20211;-67
2023/12/11 01:46:46;;;;;;;3.50;2.10;;;20.90;57.00;;;;;;5011922;28;20200;-66
2023/12/11 01:49:13;;;;;;;2.13;1.93;;;20.90;57.00;;;;;;5010632;28;20207;-66
2023/12/11 01:51:39;;;;;;;2.67;2.20;;;20.90;57.00;;;;;;5011908;28;20909;-66
2023/12/11 01:54:05;;;;;;;3.63;2.10;;;20.90;57.00;;;;;;5011778;28;20430;-66
2023/12/11 01:56:30;;;;;;;3.17;2.07;;;20.80;56.90;;;;;;5010380;28;20196;-64
2023/12/11 01:58:56;;;;;;;2.87;2.23;;;20.90;57.00;;;;;;4994165;28;20495;-66
2023/12/11 02:01:25;;;;;;;3.20;2.00;;;20.80;56.90;;;;;;5010505;28;20188;-66
2023/12/11 02:03:51;;;;;;;3.07;2.03;;;20.90;57.00;;;;;;5011652;28;20176;-66
2023/12/11 02:06:17;;;;;;;4.20;2.07;;;20.80;56.90;;;;;;5011582;28;20465;-66
2023/12/11 02:08:45;;;;;;;4.33;2.50;;;20.90;57.00;;;;;;5010572;28;20403;-66
2023/12/11 02:11:12;;;;;;;3.07;1.80;;;20.80;56.90;;;;;;5010186;28;20229;-66
2023/12/11 02:13:39;;;;;;;2.20;1.80;;;20.80;56.90;;;;;;5010244;28;20443;-66
2023/12/11 02:16:05;;;;;;;3.00;2.00;;;20.80;56.90;;;;;;5011390;28;20567;-66
2023/12/11 02:18:31;;;;;;;2.90;2.10;;;20.90;57.00;;;;;;5010162;28;20426;-65
2023/12/11 02:20:57;;;;;;;3.43;1.87;;;20.80;56.90;;;;;;5011651;28;20391;-66
2023/12/11 02:23:35;;;;;;;2.30;1.80;;;20.80;56.90;;;;;;4993699;28;20219;-66
2023/12/11 02:26:19;;;;;;;2.60;1.90;;;20.80;56.90;;;;;;5009440;28;20265;-65
2023/12/11 02:28:45;;;;;;;3.00;2.03;;;20.80;56.90;;;;;;5011581;28;20399;-66
2023/12/11 02:31:11;;;;;;;3.20;2.37;;;20.80;56.90;;;;;;5011207;28;20407;-66
2023/12/11 02:33:37;;;;;;;3.80;2.00;;;20.80;57.00;;;;;;5011295;28;20977;-66
2023/12/11 02:36:03;;;;;;;5.20;2.40;;;20.80;56.90;;;;;;5011008;28;20502;-66
2023/12/11 02:38:29;;;;;;;1.97;1.50;;;20.80;57.00;;;;;;5011090;28;20310;-65
2023/12/11 02:40:55;;;;;;;3.03;2.40;;;20.80;57.00;;;;;;5011161;28;20505;-66
2023/12/11 02:43:20;;;;;;;2.80;1.80;;;20.80;57.00;;;;;;5010062;28;20290;-66
2023/12/11 02:45:46;;;;;;;2.80;1.97;;;20.80;57.00;;;;;;4977188;28;20662;-66
2023/12/11 02:48:12;;;;;;;2.90;1.83;;;20.80;57.00;;;;;;5009652;28;20643;-66
2023/12/11 02:50:38;;;;;;;2.90;2.00;;;20.80;57.00;;;;;;5009600;28;20179;-66
2023/12/11 02:53:04;;;;;;;2.53;1.90;;;20.80;57.00;;;;;;5010948;28;20421;-66
2023/12/11 02:55:30;;;;;;;4.03;2.23;;;20.80;57.00;;;;;;5010762;28;20548;-66
2023/12/11 02:57:57;;;;;;;2.10;1.57;;;20.80;57.00;;;;;;5009473;28;20407;-65
2023/12/11 03:00:24;;;;;;;2.67;1.93;;;20.80;57.00;;;;;;5010911;28;20510;-66
2023/12/11 03:02:49;;;;;;;2.00;1.70;;;20.80;57.00;;;;;;5009360;28;20541;-66
2023/12/11 03:05:15;;;;;;;2.70;2.00;;;20.80;57.00;;;;;;5009792;28;20546;-66
2023/12/11 03:07:41;;;;;;;2.43;1.70;;;20.80;57.00;;;;;;5010958;28;20175;-66
2023/12/11 03:10:07;;;;;;;1.87;1.67;;;20.80;57.00;;;;;;4976983;28;20171;-66
2023/12/11 03:12:32;;;;;;;3.70;1.90;;;20.80;57.00;;;;;;5010668;28;20215;-66
2023/12/11 03:14:58;;;;;;;2.40;1.50;;;20.80;57.00;;;;;;5009434;28;20408;-66
2023/12/11 03:17:24;;;;;;;2.37;1.53;;;20.80;57.00;;;;;;5010622;28;20203;-66
2023/12/11 03:19:49;;;;;;;3.40;1.63;;;20.80;57.00;;;;;;5009372;28;20196;-66
2023/12/11 03:22:15;;;;;;;3.33;2.07;;;20.80;57.00;;;;;;5009296;28;20221;-66
2023/12/11 03:24:41;;;;;;;3.83;1.73;;;20.80;57.00;;;;;;5009362;28;20191;-66
2023/12/11 03:27:06;;;;;;;2.67;1.77;;;20.80;57.00;;;;;;5009403;28;20192;-66
2023/12/11 03:29:32;;;;;;;2.07;1.70;;;20.80;57.00;;;;;;5009669;28;20191;-66
2023/12/11 03:31:57;;;;;;;2.57;1.40;;;20.80;57.00;;;;;;5009281;28;20559;-66
2023/12/11 03:34:23;;;;;;;3.27;1.90;;;20.80;57.00;;;;;;4976814;28;20263;-66
2023/12/11 03:36:49;;;;;;;2.53;1.83;;;20.80;57.00;;;;;;4992880;28;20797;-66
2023/12/11 03:39:15;;;;;;;4.47;2.20;;;20.80;57.00;;;;;;5012793;28;20263;-66
2023/12/11 03:41:41;;;;;;;2.10;1.60;;;20.80;57.00;;;;;;5014373;28;20238;-66
2023/12/11 03:44:06;;;;;;;1.97;1.70;;;20.80;57.00;;;;;;5014636;28;20407;-66
2023/12/11 03:46:32;;;;;;;3.33;2.20;;;20.80;57.00;;;;;;4996684;28;20184;-66
2023/12/11 03:48:58;;;;;;;3.30;1.77;;;20.80;57.00;;;;;;5013306;28;20947;-66
2023/12/11 03:51:23;;;;;;;1.83;1.63;;;20.80;57.00;;;;;;4996684;28;20512;-66
2023/12/11 03:53:49;;;;;;;2.53;1.63;;;20.80;57.00;;;;;;5014202;28;20168;-66
2023/12/11 03:56:14;;;;;;;2.30;1.70;;;20.80;57.00;;;;;;5013982;28;20207;-66
2023/12/11 03:58:40;;;;;;;2.37;1.73;;;20.80;57.00;;;;;;5014141;28;20192;-66
2023/12/11 04:01:06;;;;;;;1.73;1.37;;;20.80;57.00;;;;;;5012763;28;20199;-65
2023/12/11 04:03:31;;;;;;;2.53;1.63;;;20.80;57.00;;;;;;5012715;28;20588;-66
2023/12/11 04:05:57;;;;;;;1.80;1.50;;;20.80;57.00;;;;;;4996372;28;20681;-65
2023/12/11 04:08:23;;;;;;;3.13;2.00;;;20.80;57.00;;;;;;5000820;28;20644;-66
2023/12/11 04:10:49;;;;;;;1.93;1.50;;;20.80;57.00;;;;;;4992798;28;20195;-66
2023/12/11 04:13:15;;;;;;;2.47;1.80;;;20.70;57.00;;;;;;4990820;28;20230;-66
2023/12/11 04:15:41;;;;;;;1.80;1.40;;;20.80;57.00;;;;;;4991368;28;20232;-66
2023/12/11 04:18:06;;;;;;;2.47;1.70;;;20.80;57.00;;;;;;4994220;28;20173;-66
2023/12/11 04:20:32;;;;;;;1.90;1.50;;;20.80;57.10;;;;;;4976970;28;20408;-65
2023/12/11 04:22:58;;;;;;;2.80;1.67;;;20.80;57.00;;;;;;4976580;28;20506;-66
2023/12/11 04:25:23;;;;;;;3.77;1.90;;;20.80;57.00;;;;;;4994101;28;20204;-66
2023/12/11 04:27:49;;;;;;;2.33;1.80;;;20.80;57.00;;;;;;4994374;28;20173;-66
2023/12/11 04:30:15;;;;;;;2.80;1.87;;;20.80;57.00;;;;;;4976610;28;20240;-66
2023/12/11 04:32:40;;;;;;;2.47;1.70;;;20.80;57.00;;;;;;4992773;28;20177;-66
2023/12/11 04:35:07;;;;;;;4.57;1.80;;;20.70;57.00;;;;;;4992491;28;20208;-66
2023/12/11 04:37:32;;;;;;;1.73;1.63;;;20.70;57.00;;;;;;4994141;28;20173;-66
2023/12/11 04:39:58;;;;;;;2.60;1.47;;;20.70;57.00;;;;;;4992832;28;20427;-66
2023/12/11 04:42:24;;;;;;;1.67;1.40;;;20.70;56.90;;;;;;4993709;28;20228;-66
2023/12/11 04:44:49;;;;;;;1.90;1.60;;;20.70;57.00;;;;;;4992419;28;20235;-66
2023/12/11 04:47:15;;;;;;;2.17;1.57;;;20.70;57.00;;;;;;4992297;28;20251;-66
2023/12/11 04:49:43;;;;;;;2.47;1.97;;;20.70;57.00;;;;;;4959650;28;20643;-66
2023/12/11 04:52:09;;;;;;;2.23;1.57;;;20.70;57.00;;;;;;4993560;28;20265;-66
2023/12/11 04:54:35;;;;;;;4.53;1.40;;;20.70;57.00;;;;;;4976115;28;20503;-66
2023/12/11 04:57:01;;;;;;;2.73;1.70;;;20.70;57.00;;;;;;4976090;28;20251;-66
2023/12/11 04:59:26;;;;;;;2.43;1.43;;;20.70;57.00;;;;;;4993498;28;20408;-66
2023/12/11 05:01:52;;;;;;;1.90;1.20;;;20.70;56.90;;;;;;4992201;28;20204;-66
2023/12/11 05:04:18;;;;;;;2.13;1.47;;;20.70;57.00;;;;;;4993433;28;20252;-66
2023/12/11 05:06:44;;;;;;;1.93;1.40;;;20.70;56.90;;;;;;4992092;28;20197;-66
2023/12/11 05:09:10;;;;;;;1.70;1.23;;;20.70;56.90;;;;;;4991973;28;20512;-66
2023/12/11 05:11:35;;;;;;;2.00;1.43;;;20.70;56.90;;;;;;4993147;28;20483;-66
2023/12/11 05:14:01;;;;;;;1.87;1.60;;;20.80;57.00;;;;;;4993256;28;20165;-66
2023/12/11 05:16:27;;;;;;;4.20;1.70;;;20.70;56.90;;;;;;4992269;28;20276;-65
2023/12/11 05:18:52;;;;;;;2.40;1.43;;;20.70;56.90;;;;;;4993226;28;20177;-65
2023/12/11 05:21:18;;;;;;;2.30;1.80;;;20.70;57.00;;;;;;4993085;28;20755;-66
2023/12/11 05:23:44;;;;;;;1.73;1.40;;;20.80;57.00;;;;;;4993242;28;20205;-65
2023/12/11 05:26:09;;;;;;;3.00;1.47;;;20.70;56.90;;;;;;4992945;28;20205;-65
2023/12/11 05:28:35;;;;;;;1.77;1.33;;;20.70;56.90;;;;;;4993094;28;20169;-65
2023/12/11 05:31:00;;;;;;;1.37;1.20;;;20.70;56.90;;;;;;4992997;28;20165;-65
2023/12/11 05:33:26;;;;;;;2.77;1.20;;;20.70;56.90;;;;;;4993027;28;20569;-65
2023/12/11 05:35:52;;;;;;;2.17;1.50;;;20.70;56.90;;;;;;4992724;28;20228;-65
2023/12/11 05:38:17;;;;;;;1.93;1.10;;;20.70;56.90;;;;;;4992886;28;20176;-66
2023/12/11 05:40:43;;;;;;;1.57;1.07;;;20.80;56.90;;;;;;5005350;28;20189;-65
2023/12/11 05:43:09;;;;;;;1.60;1.13;;;20.70;56.90;;;;;;5012263;28;20214;-65
2023/12/11 05:45:34;;;;;;;2.47;1.67;;;20.70;56.90;;;;;;5012245;28;20189;-66
2023/12/11 05:48:00;;;;;;;3.00;1.33;;;20.80;56.90;;;;;;5012190;28;20165;-65
2023/12/11 05:50:26;;;;;;;1.90;1.60;;;20.70;56.90;;;;;;5012160;28;20172;-65
2023/12/11 05:52:51;;;;;;;2.37;1.50;;;20.80;57.00;;;;;;5012101;28;20591;-65
2023/12/11 05:55:17;;;;;;;1.30;1.10;;;20.80;56.90;;;;;;5012531;28;20192;-65
2023/12/11 05:57:43;;;;;;;2.30;1.50;;;20.70;56.90;;;;;;5012751;28;20171;-65
2023/12/11 06:00:11;;;;;;;2.40;1.53;;;20.70;56.90;;;;;;5012629;28;20494;-66
2023/12/11 06:02:37;;;;;;;1.43;1.10;;;20.80;56.90;;;;;;5011832;28;20243;-64
2023/12/11 06:05:03;;;;;;;3.70;1.60;;;20.80;56.90;;;;;;5011207;28;20795;-65
2023/12/11 06:07:29;;;;;;;2.03;1.37;;;20.80;56.90;;;;;;5012602;28;20169;-65
2023/12/11 06:09:54;;;;;;;1.97;1.50;;;20.70;56.80;;;;;;5012563;28;20251;-65
2023/12/11 06:12:20;;;;;;;3.00;1.50;;;20.80;56.90;;;;;;5012091;28;20181;-66
2023/12/11 06:14:46;;;;;;;2.33;1.33;;;20.70;56.90;;;;;;5010540;28;20187;-66
2023/12/11 06:17:11;;;;;;;2.83;1.50;;;20.70;56.90;;;;;;5011674;28;20223;-65
2023/12/11 06:19:41;;;;;;;2.50;1.43;;;20.80;56.90;;;;;;5011979;28;20283;-65
2023/12/11 06:22:07;;;;;;;2.13;1.53;;;20.80;56.90;;;;;;5011557;28;20192;-66
2023/12/11 06:24:33;;;;;;;2.60;1.60;;;20.70;56.90;;;;;;4999511;28;20444;-65
2023/12/11 06:26:58;;;;;;;1.70;1.40;;;20.80;57.00;;;;;;4991800;28;20201;-65
2023/12/11 06:29:24;;;;;;;1.93;1.67;;;20.80;56.90;;;;;;4992097;28;20272;-66
2023/12/11 06:31:50;;;;;;;2.47;1.40;;;20.80;56.90;;;;;;4990638;28;20185;-65
2023/12/11 06:34:15;;;;;;;4.20;1.40;;;20.80;56.90;;;;;;4990063;28;20165;-66
2023/12/11 06:36:41;;;;;;;1.83;1.47;;;20.80;56.90;;;;;;4990119;28;20240;-66
2023/12/11 06:39:06;;;;;;;3.27;1.60;;;20.80;56.80;;;;;;4991175;28;20203;-66
2023/12/11 06:41:35;;;;;;;2.07;1.20;;;20.90;56.90;;;;;;4991547;28;20175;-65
2023/12/11 06:44:00;;;;;;;1.63;1.10;;;20.90;56.90;;;;;;4991647;28;20547;-66
2023/12/11 06:46:29;;;;;;;1.63;1.20;;;20.90;56.80;;;;;;4991660;28;20415;-66
2023/12/11 06:48:55;;;;;;;2.27;1.47;;;20.90;56.80;;;;;;4991733;28;20165;-65
2023/12/11 06:51:21;;;;;;;1.87;1.20;;;20.90;56.80;;;;;;4991670;28;20436;-66
2023/12/11 06:53:47;;;;;;;1.93;1.40;;;20.90;56.80;;;;;;4991609;28;20439;-64
2023/12/11 06:56:19;;;;;;;1.50;1.20;;;21.00;56.80;;;;;;4990433;28;20200;-65
2023/12/11 06:58:45;;;;;;;2.43;1.83;;;20.90;56.70;;;;;;4991445;28;20185;-65
2023/12/11 07:01:12;;;;;;;2.03;1.43;;;20.90;56.70;;;;;;4991480;28;20440;-65
2023/12/11 07:03:40;;;;;;;1.70;1.37;;;21.00;56.80;;;;;;4990269;28;20460;-65
2023/12/11 07:06:06;;;;;;;2.70;1.70;;;21.00;56.80;;;;;;4991248;28;20420;-66
2023/12/11 07:08:32;;;;;;;2.30;1.70;;;21.00;56.80;;;;;;4991677;28;20504;-64
2023/12/11 07:10:58;;;;;;;1.90;1.27;;;21.00;56.70;;;;;;4991387;28;20784;-64
2023/12/11 07:13:23;;;;;;;2.53;1.30;;;21.10;56.80;;;;;;4991382;28;20181;-66
2023/12/11 07:15:49;;;;;;;1.87;1.30;;;21.00;56.70;;;;;;4991277;28;20232;-66
2023/12/11 07:18:15;;;;;;;2.40;1.60;;;21.10;56.80;;;;;;4991620;28;20172;-66
2023/12/11 07:20:41;;;;;;;2.13;1.37;;;21.10;56.70;;;;;;4991130;28;20235;-65
2023/12/11 07:23:07;;;;;;;2.13;1.27;;;21.10;56.80;;;;;;4991507;28;20307;-66
2023/12/11 07:25:33;;;;;;;2.17;1.40;;;21.10;56.70;;;;;;4989821;28;20459;-65
2023/12/11 07:27:59;;;;;;;3.10;1.70;;;21.10;56.70;;;;;;4991309;28;20499;-66
2023/12/11 07:30:26;;;;;;;1.50;1.10;;;21.10;56.70;;;;;;4991190;28;20515;-66
2023/12/11 07:32:51;;;;;;;2.90;1.50;;;21.10;56.70;;;;;;4991640;28;20212;-66
2023/12/11 07:35:17;;;;;;;1.47;1.03;;;21.10;56.70;;;;;;4991158;28;20439;-65
2023/12/11 07:37:43;;;;;;;2.00;1.30;;;21.10;56.70;;;;;;4991240;28;20341;-64
2023/12/11 07:40:09;;;;;;;1.93;1.50;;;21.10;56.60;;;;;;4990641;28;20185;-66
2023/12/11 07:42:35;;;;;;;2.03;1.57;;;21.10;56.70;;;;;;4989413;28;20900;-65
2023/12/11 07:45:05;;;;;;;2.10;1.27;;;21.10;56.60;;;;;;4991336;28;20423;-65
2023/12/11 07:47:32;;;;;;;2.90;1.70;;;21.10;56.60;;;;;;4991125;28;20197;-65
2023/12/11 07:49:58;;;;;;;2.40;1.43;;;21.10;57.20;;;;;;4991046;28;20755;-66
2023/12/11 07:52:24;;;;;;;1.83;1.50;;;21.10;56.60;;;;;;4991316;28;20935;-66
2023/12/11 07:54:50;;;;;;;2.30;1.40;;;21.10;56.60;;;;;;4991121;28;20947;-66
2023/12/11 07:57:15;;;;;;;2.47;1.60;;;21.10;56.60;;;;;;4990858;28;20444;-66
2023/12/11 07:59:41;;;;;;;1.93;1.20;;;21.10;56.60;;;;;;4990979;28;20203;-66
2023/12/11 08:02:08;;;;;;;4.60;1.37;;;21.10;56.60;;;;;;4991159;28;20208;-65
2023/12/11 08:04:38;;;;;;;1.40;0.97;;;21.10;56.60;;;;;;4989620;28;20260;-65
2023/12/11 08:07:04;;;;;;;1.67;1.20;;;21.20;56.70;;;;;;4991192;28;20451;-66
2023/12/11 08:09:29;;;;;;;2.37;1.20;;;21.10;56.60;;;;;;4990897;28;20428;-66
2023/12/11 08:11:55;;;;;;;1.50;1.27;;;21.10;57.20;;;;;;4990927;28;20408;-65
2023/12/11 08:14:21;;;;;;;1.93;1.27;;;21.20;56.70;;;;;;4990761;28;20180;-65
2023/12/11 08:16:46;;;;;;;1.70;1.33;;;21.20;56.70;;;;;;4990767;28;20223;-66
2023/12/11 08:19:12;;;;;;;1.50;1.37;;;21.20;56.70;;;;;;4990763;28;20170;-66
2023/12/11 08:21:38;;;;;;;2.03;1.40;;;21.20;56.70;;;;;;4990596;28;20504;-66
2023/12/11 08:24:04;;;;;;;1.30;1.10;;;21.20;56.70;;;;;;4990671;28;20177;-66
2023/12/11 08:26:29;;;;;;;1.40;1.30;;;21.20;56.70;;;;;;4994305;28;20200;-66
2023/12/11 08:28:55;;;;;;;2.60;1.40;;;21.20;56.70;;;;;;4994165;28;20412;-66
2023/12/11 08:31:21;;;;;;;1.87;1.20;;;21.20;56.70;;;;;;4994084;28;20255;-65
2023/12/11 08:33:47;;;;;;;1.50;1.20;;;21.20;56.70;;;;;;4994161;28;20420;-65
2023/12/11 08:36:12;;;;;;;2.10;1.50;;;21.20;56.80;;;;;;4992659;28;20205;-66
2023/12/11 08:38:38;;;;;;;1.70;1.10;;;21.20;56.80;;;;;;4993919;28;20196;-66
2023/12/11 08:41:04;;;;;;;1.83;1.10;;;21.20;56.80;;;;;;4993926;28;20184;-66
2023/12/11 08:43:29;;;;;;;1.97;1.40;;;21.20;56.80;;;;;;4993866;28;20205;-64
2023/12/11 08:45:55;;;;;;;1.90;1.17;;;21.20;56.90;;;;;;4993996;28;20684;-65
2023/12/11 08:48:21;;;;;;;2.40;1.30;;;21.20;56.90;;;;;;4993765;28;20671;-65
2023/12/11 08:50:52;;;;;;;1.83;1.30;;;21.20;56.90;;;;;;4993814;28;20408;-65
2023/12/11 08:53:18;;;;;;;2.30;1.40;;;21.20;56.90;;;;;;4994104;28;20170;-65
2023/12/11 08:55:43;;;;;;;2.77;1.50;;;21.20;56.90;;;;;;4993921;28;21083;-66
2023/12/11 08:58:10;;;;;;;3.17;1.70;;;21.20;56.90;;;;;;4993541;28;20412;-66
2023/12/11 09:00:36;;;;;;;2.57;1.30;;;21.20;56.90;;;;;;4993509;28;20220;-66
2023/12/11 09:03:01;;;;;;;2.20;1.40;;;21.20;56.90;;;;;;4993550;28;20460;-66
2023/12/11 09:05:27;;;;;;;1.83;1.30;;;21.20;56.90;;;;;;4993393;28;20208;-66
2023/12/11 09:07:52;;;;;;;2.53;1.60;;;21.20;56.90;;;;;;4993451;28;20244;-65
2023/12/11 09:10:18;;;;;;;1.90;1.57;;;21.20;56.90;;;;;;4993334;28;20212;-65
2023/12/11 09:12:44;;;;;;;1.90;1.50;;;21.20;56.90;;;;;;4993303;28;20192;-66
2023/12/11 09:15:10;;;;;;;2.57;1.50;;;21.20;56.90;;;;;;4993157;28;20173;-66
2023/12/11 09:17:36;;;;;;;1.90;1.50;;;21.20;57.00;;;;;;4993224;28;20236;-66
2023/12/11 09:20:06;;;;;;;1.70;1.30;;;21.20;57.00;;;;;;4993188;28;20911;-65
2023/12/11 09:22:31;;;;;;;2.33;1.43;;;21.20;57.00;;;;;;4993348;28;20628;-64
2023/12/11 09:24:57;;;;;;;1.97;1.27;;;21.20;57.00;;;;;;4992892;28;20459;-66
2023/12/11 09:27:23;;;;;;;2.03;1.63;;;21.20;57.00;;;;;;4993035;28;20196;-66
2023/12/11 09:29:48;;;;;;;1.90;1.40;;;21.20;57.00;;;;;;4993111;28;20185;-65
2023/12/11 09:32:15;;;;;;;2.27;1.40;;;21.20;57.00;;;;;;4992961;28;20177;-65
2023/12/11 09:34:41;;;;;;;2.80;1.70;;;21.20;57.00;;;;;;4993017;28;20616;-66
2023/12/11 09:37:07;;;;;;;1.60;1.10;;;21.20;57.00;;;;;;4991719;28;20428;-66
2023/12/11 09:39:32;;;;;;;1.47;1.23;;;21.20;57.00;;;;;;4992826;28;20285;-67
2023/12/11 09:41:59;;;;;;;3.13;1.50;;;21.20;57.10;;;;;;4992777;28;20269;-66
2023/12/11 09:44:27;;;;;;;1.50;1.40;;;21.20;57.10;;;;;;4992677;28;20216;-67
2023/12/11 09:46:59;;;;;;;1.30;1.20;;;21.20;57.00;;;;;;4992608;28;20797;-65
2023/12/11 09:49:25;;;;;;;1.73;1.30;;;21.20;57.00;;;;;;4992675;28;20389;-67
2023/12/11 09:51:52;;;;;;;1.50;1.07;;;21.20;57.00;;;;;;4992649;28;20407;-66
2023/12/11 09:54:18;;;;;;;2.03;1.10;;;21.20;57.00;;;;;;4992601;28;20171;-66
2023/12/11 09:56:43;;;;;;;2.07;1.10;;;21.20;57.10;;;;;;4992616;28;20792;-66
2023/12/11 09:59:10;;;;;;;2.90;1.57;;;21.20;57.10;;;;;;4992391;28;20181;-66
2023/12/11 10:01:36;;;;;;;1.50;1.20;;;21.20;57.10;;;;;;4992525;28;20549;-67
2023/12/11 10:04:02;;;;;;;2.23;1.20;;;21.20;57.10;;;;;;4992300;28;20487;-66
2023/12/11 10:06:28;;;;;;;1.47;1.20;;;21.20;57.10;;;;;;4992284;28;20431;-67
2023/12/11 10:08:54;;;;;;;1.70;1.20;;;21.20;57.10;;;;;;4990979;28;20797;-66
2023/12/11 10:11:22;;;;;;;1.90;1.50;;;21.20;57.10;;;;;;4992222;28;20176;-66
2023/12/11 10:13:48;;;;;;;1.80;1.20;;;21.20;57.10;;;;;;4992182;28;20173;-65
2023/12/11 10:16:28;;;;;;;2.30;1.40;;;21.20;57.10;;;;;;4992091;28;20447;-67
2023/12/11 10:18:54;;;;;;;1.60;1.17;;;21.20;57.10;;;;;;4992085;28;20428;-66
2023/12/11 10:21:20;;;;;;;2.50;1.20;;;21.20;57.10;;;;;;4992357;28;20434;-67
2023/12/11 10:24:04;;;;;;;1.40;1.00;;;21.20;57.10;;;;;;4991887;28;20193;-66
2023/12/11 10:26:44;;;;;;;1.80;1.47;;;21.20;57.10;;;;;;4991863;28;20531;-66
2023/12/11 10:29:19;;;;;;;1.40;1.10;;;21.20;57.10;;;;;;4992525;28;20384;-66
2023/12/11 10:31:45;;;;;;;1.63;1.10;;;21.20;57.10;;;;;;4991750;28;20458;-67
2023/12/11 10:34:11;;;;;;;2.07;1.33;;;21.20;57.10;;;;;;4991815;28;20404;-67
2023/12/11 10:36:55;;;;;;;1.73;1.10;;;21.20;57.10;;;;;;4991820;28;20435;-66
2023/12/11 10:39:21;;;;;;;1.60;1.00;;;21.20;57.10;;;;;;5008209;28;20410;-66
2023/12/11 10:41:47;;;;;;;1.60;1.20;;;21.20;57.10;;;;;;5011159;28;20407;-65
2023/12/11 10:44:23;;;;;;;2.07;1.30;;;21.20;57.10;;;;;;5011191;28;20172;-67
2023/12/11 10:46:57;;;;;;;1.43;0.97;;;21.20;57.10;;;;;;5010775;28;20964;-67
2023/12/11 10:49:23;;;;;;;1.43;1.10;;;21.20;57.10;;;;;;5011053;28;20486;-66
2023/12/11 10:51:50;;;;;;;2.00;1.00;;;21.20;57.10;;;;;;5010921;28;20465;-67
2023/12/11 10:54:16;;;;;;;4.20;1.30;;;21.20;57.10;;;;;;5010844;28;20894;-66
2023/12/11 10:56:46;;;;;;;2.27;1.00;;;21.20;57.10;;;;;;5010771;28;20554;-65
2023/12/11 10:59:12;;;;;;;1.93;1.27;;;21.20;57.10;;;;;;5010919;28;20415;-67
2023/12/11 11:01:44;;;;;;;1.30;1.07;;;21.20;57.10;;;;;;5010744;28;20407;-66
2023/12/11 11:04:12;;;;;;;1.33;1.10;;;21.20;57.10;;;;;;5010729;28;20422;-67
2023/12/11 11:06:52;;;;;;;2.03;1.70;;;21.20;57.10;;;;;;5010888;28;20956;-66
2023/12/11 11:10:00;;;;;;;1.50;1.30;;;21.20;57.10;;;;;;5009462;28;20503;-66
2023/12/11 11:12:57;;;;;;;1.70;0.90;;;21.20;57.10;;;;;;5002078;28;20874;-67
2023/12/11 11:15:24;;;;;;;1.60;1.20;;;21.20;57.20;;;;;;5010587;28;20533;-67
2023/12/11 11:17:57;;;;;;;1.23;1.00;;;21.10;57.10;;;;;;5010648;28;20407;-65
2023/12/11 11:20:23;;;;;;;1.90;1.10;;;21.10;57.10;;;;;;5010944;28;20414;-67
2023/12/11 11:22:49;;;;;;;2.57;1.17;;;21.10;57.10;;;;;;5010461;28;21218;-67
2023/12/11 11:25:29;;;;;;;1.80;1.30;;;21.10;57.10;;;;;;5010384;28;20461;-66
2023/12/11 11:27:55;;;;;;;1.93;1.37;;;21.20;57.20;;;;;;5010466;28;20542;-67
2023/12/11 11:30:45;;;;;;;1.23;1.00;;;21.10;57.10;;;;;;5010498;28;20502;-66
2023/12/11 11:33:12;;;;;;;2.60;1.30;;;21.10;57.10;;;;;;5010800;28;20186;-67
2023/12/11 11:35:49;;;;;;;1.73;1.10;;;21.10;57.10;;;;;;5010415;28;20438;-66
2023/12/11 11:38:17;;;;;;;1.90;1.23;;;21.10;57.10;;;;;;5010438;28;20411;-65
2023/12/11 11:40:43;;;;;;;1.80;1.10;;;21.10;57.10;;;;;;4992629;28;20431;-67
2023/12/11 11:43:15;;;;;;;1.30;1.00;;;21.10;57.10;;;;;;5010267;28;20467;-66
2023/12/11 11:45:41;;;;;;;2.13;1.40;;;21.10;57.10;;;;;;5010351;28;20427;-67
2023/12/11 11:48:07;;;;;;;1.80;1.10;;;21.10;57.10;;;;;;5010264;28;20404;-66
2023/12/11 11:50:33;;;;;;;1.97;1.40;;;21.10;57.10;;;;;;5010333;28;20481;-67
2023/12/11 11:53:04;;;;;;;1.50;1.30;;;21.10;57.10;;;;;;5010333;28;20398;-67
2023/12/11 11:55:29;;;;;;;1.50;1.10;;;21.10;57.10;;;;;;5010214;28;20192;-66
2023/12/11 11:57:56;;;;;;;1.73;1.20;;;21.10;57.10;;;;;;5010289;28;20494;-65
2023/12/11 12:00:28;;;;;;;1.10;1.00;;;21.10;57.10;;;;;;5011031;28;20180;-66
2023/12/11 12:02:59;;;;;;;1.60;1.20;;;21.10;57.10;;;;;;5013945;28;20493;-67
2023/12/11 12:05:26;;;;;;;1.47;1.13;;;21.10;57.10;;;;;;5013741;28;20423;-67
2023/12/11 12:07:52;;;;;;;1.50;1.23;;;21.10;57.10;;;;;;5013664;28;20465;-67
2023/12/11 12:10:18;;;;;;;1.70;1.20;;;21.10;57.10;;;;;;5013764;28;20505;-67
2023/12/11 12:12:49;;;;;;;1.40;1.10;;;21.10;57.10;;;;;;5013762;28;20542;-66
2023/12/11 12:15:16;;;;;;;3.43;1.10;;;21.10;57.10;;;;;;5013672;28;20460;-67
2023/12/11 12:17:42;;;;;;;1.67;1.10;;;21.10;57.20;;;;;;5013693;28;20411;-67
2023/12/11 12:20:19;;;;;;;2.60;1.10;;;21.10;57.10;;;;;;5013851;28;20410;-66
2023/12/11 12:23:01;;;;;;;1.40;0.80;;;21.10;57.10;;;;;;5013357;28;20502;-67
2023/12/11 12:25:27;;;;;;;2.37;1.30;;;21.10;57.20;;;;;;5013525;28;20504;-67
2023/12/11 12:27:56;;;;;;;1.87;1.10;;;21.10;57.10;;;;;;5013474;28;20435;-66
2023/12/11 12:30:22;;;;;;;1.30;0.90;;;21.10;57.20;;;;;;5013399;28;20895;-66
2023/12/11 12:32:51;;;;;;;2.27;0.93;;;21.10;57.20;;;;;;5013367;28;20963;-66
2023/12/11 12:35:18;;;;;;;1.33;1.17;;;21.10;57.20;;;;;;5013184;28;20411;-65
2023/12/11 12:37:45;;;;;;;2.13;1.07;;;21.10;57.20;;;;;;5013260;28;20416;-65
2023/12/11 12:40:12;;;;;;;1.17;1.00;;;21.10;57.20;;;;;;5012896;28;20789;-67
2023/12/11 12:42:38;;;;;;;1.83;0.93;;;21.10;57.20;;;;;;5013060;28;20451;-67
2023/12/11 12:45:05;;;;;;;1.83;1.10;;;21.10;57.20;;;;;;5012860;28;20408;-67
2023/12/11 12:47:32;;;;;;;1.77;1.10;;;21.10;57.20;;;;;;5013341;28;20412;-67